Time;durP1;ratioP1;P1;durP2;ratioP2;P2;SDS_P1;SDS_P2;PMS_P1;PMS_P2;Temp;Humidity;BMP_temperature;BMP_pressure;BME280_temperature;BME280_humidity;BME280_pressure;Samples;Min_cycle;Max_cycle;Signal;HPM_P1;HPM_P2
2024/03/23 00:01:38;;;;;;;4.97;3.73;;;;;;;4.82;55.65;96561.75;5052635;28;20221;-88
2024/03/23 00:04:13;;;;;;;3.93;3.60;;;;;;;4.87;54.92;96564.44;5052322;28;20202;-87
2024/03/23 00:06:42;;;;;;;3.50;3.20;;;;;;;4.77;55.63;96562.50;5053600;28;20197;-88
2024/03/23 00:09:14;;;;;;;7.83;5.20;;;;;;;4.57;56.14;96559.66;5053311;28;20244;-87
2024/03/23 00:11:44;;;;;;;3.97;3.50;;;;;;;4.47;56.34;96555.09;5051678;28;20654;-89
2024/03/23 00:14:18;;;;;;;3.00;2.70;;;;;;;4.28;56.84;96545.91;5053572;28;20244;-88
2024/03/23 00:19:45;;;;;;;8.90;4.10;;;;;;;4.40;56.91;96552.63;5049606;28;20601;-88
2024/03/23 00:22:30;;;;;;;3.97;3.20;;;;;;;4.60;56.57;96549.41;5052899;28;20195;-89
2024/03/23 00:25:04;;;;;;;3.87;3.30;;;;;;;4.40;56.70;96528.13;5052028;28;20660;-87
2024/03/23 00:27:34;;;;;;;3.37;2.83;;;;;;;4.32;57.45;96549.66;5052246;28;20715;-88
2024/03/23 00:30:07;;;;;;;3.57;3.00;;;;;;;4.24;57.69;96558.78;5052806;28;20221;-87
2024/03/23 00:32:37;;;;;;;5.23;3.13;;;;;;;4.12;57.53;96547.59;5053141;28;20202;-88
2024/03/23 00:35:08;;;;;;;4.27;3.10;;;;;;;4.08;57.50;96542.00;5052758;28;20252;-89
2024/03/23 00:37:38;;;;;;;3.93;2.90;;;;;;;4.30;57.08;96551.75;5052981;28;20343;-88
2024/03/23 00:40:14;;;;;;;4.73;3.13;;;;;;;4.45;56.89;96553.72;5053506;28;20560;-88
2024/03/23 00:42:51;;;;;;;4.77;2.83;;;;;;;4.19;57.54;96542.13;5052480;28;20201;-88
2024/03/23 00:45:21;;;;;;;3.57;2.93;;;;;;;4.05;58.09;96546.97;5052718;28;20197;-86
2024/03/23 00:47:51;;;;;;;2.67;2.47;;;;;;;4.10;57.78;96547.00;5050808;28;20683;-86
2024/03/23 00:50:22;;;;;;;3.63;2.80;;;;;;;4.17;57.28;96545.78;5052572;28;20213;-86
2024/03/23 00:52:52;;;;;;;4.43;3.67;;;;;;;4.21;57.49;96542.66;5052542;28;20198;-86
2024/03/23 00:55:20;;;;;;;4.30;3.90;;;;;;;3.90;58.17;96537.03;5052569;28;20305;-86
2024/03/23 00:57:49;;;;;;;3.27;2.97;;;;;;;4.13;58.08;96546.53;5051047;28;20228;-87
2024/03/23 01:00:17;;;;;;;4.37;3.20;;;;;;;4.13;57.36;96531.53;5052590;28;20220;-86
2024/03/23 01:02:43;;;;;;;4.43;3.37;;;;;;;4.06;58.03;96517.72;5052543;28;20200;-86
2024/03/23 01:05:10;;;;;;;4.30;3.60;;;;;;;4.19;57.98;96544.75;5052602;28;20193;-87
2024/03/23 01:07:37;;;;;;;4.20;3.60;;;;;;;4.14;58.35;96541.03;5049875;28;20272;-86
2024/03/23 01:10:08;;;;;;;4.43;3.50;;;;;;;4.26;57.50;96535.63;5051716;28;20292;-87
2024/03/23 01:12:35;;;;;;;3.57;2.93;;;;;;;3.82;58.33;96484.81;5052725;28;20268;-88
2024/03/23 01:15:02;;;;;;;3.63;3.30;;;;;;;3.88;58.36;96520.69;5052332;28;20212;-87
2024/03/23 01:17:29;;;;;;;3.70;3.37;;;;;;;3.84;58.58;96493.28;5050671;28;20585;-87
2024/03/23 01:19:56;;;;;;;3.80;3.40;;;;;;;4.09;58.40;96534.91;5052064;28;20206;-86
2024/03/23 01:22:25;;;;;;;4.40;3.63;;;;;;;3.61;59.74;96508.25;5051622;28;20592;-85
2024/03/23 01:25:06;;;;;;;4.27;3.63;;;;;;;3.66;59.68;96518.03;5050055;28;20193;-85
2024/03/23 01:27:36;;;;;;;4.83;3.87;;;;;;;3.92;58.89;96532.34;5051781;28;20688;-85
2024/03/23 01:30:03;;;;;;;4.50;3.50;;;;;;;4.04;58.22;96540.91;5032188;28;20205;-86
2024/03/23 01:32:29;;;;;;;3.93;3.23;;;;;;;4.01;58.17;96528.22;5032199;28;20198;-86
2024/03/23 01:34:57;;;;;;;4.73;4.27;;;;;;;3.88;58.72;96513.59;5031749;28;20202;-86
2024/03/23 01:37:23;;;;;;;4.87;4.30;;;;;;;3.74;59.15;96530.78;5048601;28;20284;-86
2024/03/23 01:39:50;;;;;;;4.60;3.83;;;;;;;3.20;60.52;96467.44;5040911;28;20234;-86
2024/03/23 01:42:22;;;;;;;5.23;3.97;;;;;;;3.51;60.40;96517.84;5040986;28;20229;-86
2024/03/23 01:44:51;;;;;;;5.67;4.10;;;;;;;3.18;59.97;96456.38;5050705;28;20732;-89
2024/03/23 01:47:20;;;;;;;3.83;3.43;;;;;;;3.43;59.90;96484.84;5046343;28;20198;-86
2024/03/23 01:49:48;;;;;;;4.67;3.57;;;;;;;3.80;59.08;96521.13;5031946;28;20202;-87
2024/03/23 01:52:30;;;;;;;5.00;3.20;;;;;;;3.65;59.63;96516.47;5031916;28;20222;-87
2024/03/23 01:55:01;;;;;;;3.60;3.23;;;;;;;3.70;59.22;96511.25;5029428;28;20234;-87
2024/03/23 01:57:33;;;;;;;5.93;4.07;;;;;;;3.55;59.45;96490.78;5050908;28;20663;-87
2024/03/23 02:00:13;;;;;;;4.50;4.00;;;;;;;3.76;59.36;96526.06;5051424;28;20623;-88
2024/03/23 02:02:54;;;;;;;4.97;4.30;;;;;;;3.51;59.68;96491.53;5049265;28;20202;-88
2024/03/23 02:08:31;;;;;;;6.73;4.60;;;;;;;3.55;59.65;96517.09;5050579;28;20746;-87
2024/03/23 02:11:14;;;;;;;5.70;4.30;;;;;;;3.16;60.90;96484.72;5050742;28;20643;-87
2024/03/23 02:13:42;;;;;;;5.50;4.70;;;;;;;2.96;61.32;96466.03;5051615;28;20216;-89
2024/03/23 02:16:17;;;;;;;5.63;4.60;;;;;;;2.82;61.71;96486.56;5050486;28;20209;-88
2024/03/23 02:18:51;;;;;;;4.50;3.63;;;;;;;3.08;61.22;96509.59;5050588;28;20198;-88
2024/03/23 02:21:32;;;;;;;4.17;3.57;;;;;;;2.97;62.62;96513.09;5050000;28;20630;-88
2024/03/23 02:24:21;;;;;;;3.60;3.23;;;;;;;2.76;62.96;96511.19;5055999;28;20558;-87
2024/03/23 02:27:16;;;;;;;4.37;3.73;;;;;;;2.97;63.46;96510.47;5053709;28;20193;-87
2024/03/23 02:30:09;;;;;;;4.67;3.53;;;;;;;3.03;62.77;96501.63;5055281;28;20683;-87
2024/03/23 02:33:13;;;;;;;3.83;3.50;;;;;;;2.96;61.93;96518.59;5054901;28;20221;-88
2024/03/23 02:35:56;;;;;;;4.77;4.27;;;;;;;2.89;62.18;96477.50;5055197;28;20323;-88
2024/03/23 02:38:36;;;;;;;5.23;4.37;;;;;;;2.94;62.54;96500.44;5055041;28;20204;-89
2024/03/23 02:41:15;;;;;;;5.30;4.57;;;;;;;2.11;62.06;96358.31;5055577;28;20206;-89
2024/03/23 02:44:13;;;;;;;4.53;4.13;;;;;;;2.81;62.48;96470.00;5053350;28;20645;-90
2024/03/23 02:50:17;;;;;;;4.63;3.83;;;;;;;3.24;61.05;96501.94;5054182;28;20220;-90
2024/03/23 02:53:04;;;;;;;4.00;3.60;;;;;;;3.09;62.07;96505.13;5055429;28;20197;-90
2024/03/23 02:56:06;;;;;;;3.93;3.60;;;;;;;3.17;61.36;96497.66;5054920;28;20197;-88
2024/03/23 02:58:37;;;;;;;6.63;4.10;;;;;;;2.63;62.01;96484.19;5055123;28;20232;-92
2024/03/23 03:01:05;;;;;;;4.23;3.67;;;;;;;2.89;62.75;96505.63;5055553;28;20263;-90
2024/03/23 03:03:34;;;;;;;5.43;4.23;;;;;;;2.75;61.82;96472.78;5055492;28;20652;-89
2024/03/23 03:06:40;;;;;;;5.13;4.47;;;;;;;2.86;62.16;96506.09;5053552;28;20664;-89
2024/03/23 03:09:41;;;;;;;4.73;4.03;;;;;;;2.81;62.64;96500.75;5054397;28;20205;-90
2024/03/23 03:15:50;;;;;;;4.37;3.93;;;;;;;2.90;61.94;96497.50;5054830;28;20165;-89
2024/03/23 03:18:16;;;;;;;5.60;4.47;;;;;;;3.04;62.45;96494.53;5053194;28;20581;-89
2024/03/23 03:20:44;;;;;;;5.37;4.43;;;;;;;2.94;62.63;96493.38;5055140;28;20227;-89
2024/03/23 03:23:10;;;;;;;6.10;4.60;;;;;;;2.87;62.77;96497.19;5054519;28;20560;-89
2024/03/23 03:25:40;;;;;;;5.07;4.40;;;;;;;2.63;62.14;96443.97;5054807;28;20572;-89
2024/03/23 03:28:07;;;;;;;7.60;5.33;;;;;;;2.55;62.99;96475.88;5053050;28;20209;-90
2024/03/23 03:30:35;;;;;;;5.97;5.13;;;;;;;2.18;63.90;96439.56;5053119;28;20202;-88
2024/03/23 03:33:01;;;;;;;6.10;5.43;;;;;;;2.04;64.96;96449.53;5054107;28;20285;-88
2024/03/23 03:35:30;;;;;;;5.70;4.97;;;;;;;2.62;63.31;96503.59;5054187;28;20294;-87
2024/03/23 03:37:56;;;;;;;5.07;4.30;;;;;;;2.60;63.24;96481.25;5054024;28;20586;-87
2024/03/23 03:40:24;;;;;;;5.63;4.63;;;;;;;2.49;62.70;96455.84;5052928;28;20249;-86
2024/03/23 03:42:52;;;;;;;5.10;4.60;;;;;;;2.62;62.51;96476.53;5047218;28;20620;-87
2024/03/23 03:45:19;;;;;;;7.03;6.10;;;;;;;2.39;62.95;96462.50;5034056;28;20195;-89
2024/03/23 03:47:47;;;;;;;8.57;6.67;;;;;;;2.59;63.04;96496.19;5045799;28;20206;-89
2024/03/23 03:50:14;;;;;;;9.70;7.27;;;;;;;2.48;62.88;96475.22;5054322;28;20202;-89
2024/03/23 03:52:43;;;;;;;8.60;6.07;;;;;;;2.48;62.61;96470.81;5052378;28;20229;-88
2024/03/23 03:55:14;;;;;;;5.70;4.67;;;;;;;2.47;62.72;96469.19;5053761;28;20613;-88
2024/03/23 03:57:44;;;;;;;6.20;4.37;;;;;;;2.44;62.86;96459.97;5053913;28;20206;-90
2024/03/23 04:00:12;;;;;;;5.73;3.90;;;;;;;2.34;63.37;96470.28;5052649;28;20209;-88
2024/03/23 04:02:38;;;;;;;5.30;4.53;;;;;;;2.59;64.14;96511.94;5053961;28;20206;-90
2024/03/23 04:05:08;;;;;;;6.90;6.23;;;;;;;2.63;63.96;96522.78;5054082;28;20201;-90
2024/03/23 04:07:34;;;;;;;5.90;4.53;;;;;;;2.50;63.78;96504.69;5052796;28;20205;-89
2024/03/23 04:10:07;;;;;;;10.37;5.80;;;;;;;1.94;64.42;96420.50;5052496;28;20664;-89
2024/03/23 04:12:47;;;;;;;8.87;6.07;;;;;;;2.58;64.37;96507.72;5053965;28;20272;-89
2024/03/23 04:15:14;;;;;;;7.43;5.20;;;;;;;2.51;64.21;96522.06;5052504;28;20728;-89
2024/03/23 04:17:42;;;;;;;5.03;4.17;;;;;;;2.57;62.95;96495.63;5053848;28;20265;-91
2024/03/23 04:20:16;;;;;;;5.17;4.60;;;;;;;2.47;63.47;96500.72;5043293;28;20206;-89
2024/03/23 04:22:42;;;;;;;5.27;4.73;;;;;;;2.40;63.39;96510.56;5034446;28;20556;-88
2024/03/23 04:25:12;;;;;;;17.03;11.73;;;;;;;2.16;65.03;96530.88;5034639;28;20261;-90
2024/03/23 04:27:39;;;;;;;11.00;9.90;;;;;;;2.03;65.07;96504.91;5033445;28;20229;-90
2024/03/23 04:30:10;;;;;;;9.27;5.60;;;;;;;2.07;64.03;96488.44;5034177;28;20768;-90
2024/03/23 04:32:37;;;;;;;6.27;4.87;;;;;;;2.44;63.69;96509.88;5032473;28;20265;-90
2024/03/23 04:35:09;;;;;;;6.57;5.33;;;;;;;2.03;64.81;96455.81;5032929;28;20202;-90
2024/03/23 04:37:40;;;;;;;5.63;4.50;;;;;;;2.17;64.22;96465.00;5033594;28;20562;-88
2024/03/23 04:40:36;;;;;;;5.73;4.10;;;;;;;2.48;64.19;96507.56;5033192;28;20211;-88
2024/03/23 04:43:22;;;;;;;5.27;4.13;;;;;;;2.25;64.72;96497.97;5045655;28;20205;-88
2024/03/23 04:45:49;;;;;;;5.13;4.33;;;;;;;2.44;64.40;96512.50;5052520;28;20210;-87
2024/03/23 04:48:16;;;;;;;5.57;4.33;;;;;;;2.10;64.84;96472.22;5052846;28;20197;-89
2024/03/23 04:50:43;;;;;;;5.03;4.17;;;;;;;2.37;65.22;96505.81;5051061;28;20201;-88
2024/03/23 04:53:15;;;;;;;4.80;4.30;;;;;;;2.39;65.77;96527.34;5051989;28;20296;-88
2024/03/23 04:55:43;;;;;;;5.60;4.77;;;;;;;2.46;65.48;96509.63;5037246;28;20229;-87
2024/03/23 04:58:09;;;;;;;4.67;4.17;;;;;;;2.20;64.96;96501.28;5049487;28;20575;-89
2024/03/23 05:00:36;;;;;;;5.40;3.90;;;;;;;2.33;65.69;96515.97;5052640;28;20665;-88
2024/03/23 05:03:04;;;;;;;4.03;3.17;;;;;;;2.29;64.01;96456.28;5052317;28;20186;-88
2024/03/23 05:05:37;;;;;;;6.90;3.87;;;;;;;2.47;63.36;96484.16;5043863;28;20213;-88
2024/03/23 05:08:04;;;;;;;6.13;5.27;;;;;;;2.45;63.69;96529.06;5032174;28;20202;-86
2024/03/23 05:10:33;;;;;;;23.30;20.13;;;;;;;2.23;64.96;96515.78;5045375;28;20195;-87
2024/03/23 05:12:59;;;;;;;15.57;13.97;;;;;;;2.41;65.18;96527.94;5052051;28;20244;-86
2024/03/23 05:15:27;;;;;;;11.77;8.87;;;;;;;2.28;65.81;96513.22;5048310;28;20668;-87
2024/03/23 05:17:54;;;;;;;10.17;7.40;;;;;;;1.89;65.58;96407.25;5032255;28;20257;-86
2024/03/23 05:20:21;;;;;;;10.20;6.90;;;;;;;2.17;64.73;96419.59;5032431;28;20199;-86
2024/03/23 05:22:50;;;;;;;6.80;5.60;;;;;;;2.29;64.11;96436.06;5040205;28;20202;-87
2024/03/23 05:25:17;;;;;;;6.07;5.47;;;;;;;2.95;64.29;96546.72;5052114;28;20214;-85
2024/03/23 05:27:46;;;;;;;5.63;4.80;;;;;;;2.80;64.32;96510.47;5049866;28;20208;-85
2024/03/23 05:30:13;;;;;;;5.03;4.47;;;;;;;3.02;64.54;96543.94;5052036;28;20208;-85
2024/03/23 05:32:41;;;;;;;5.70;4.40;;;;;;;2.81;63.82;96463.97;5052175;28;20222;-84
2024/03/23 05:35:12;;;;;;;5.57;4.23;;;;;;;3.36;63.44;96521.03;5051972;28;20202;-84
2024/03/23 05:37:46;;;;;;;4.60;4.00;;;;;;;3.36;63.67;96518.41;5052388;28;20207;-84
2024/03/23 05:40:23;;;;;;;4.07;3.60;;;;;;;3.40;63.56;96516.88;5051838;28;20209;-89
2024/03/23 05:42:53;;;;;;;6.83;5.13;;;;;;;3.35;63.46;96506.31;5041183;28;20284;-83
2024/03/23 05:45:20;;;;;;;13.07;8.97;;;;;;;3.72;63.04;96517.09;5050061;28;20730;-84
2024/03/23 05:47:46;;;;;;;9.87;7.50;;;;;;;3.53;62.84;96474.47;5043404;28;20195;-85
2024/03/23 05:50:16;;;;;;;11.53;8.70;;;;;;;3.92;63.11;96513.91;5031525;28;20203;-84
2024/03/23 05:52:52;;;;;;;12.17;7.17;;;;;;;3.66;63.23;96487.25;5051514;28;20253;-83
2024/03/23 05:55:21;;;;;;;10.10;6.50;;;;;;;4.12;62.94;96508.06;5048873;28;20755;-83
2024/03/23 05:57:48;;;;;;;7.33;5.80;;;;;;;4.21;62.49;96530.28;5052076;28;20672;-84
2024/03/23 06:00:16;;;;;;;6.90;6.13;;;;;;;4.25;62.34;96510.31;5040354;28;20205;-85
2024/03/23 06:02:56;;;;;;;6.53;5.80;;;;;;;4.49;62.04;96516.13;5035658;28;20244;-84
2024/03/23 06:05:23;;;;;;;5.90;5.30;;;;;;;4.70;60.63;96516.31;5038161;28;20204;-82
2024/03/23 06:07:53;;;;;;;4.47;4.00;;;;;;;4.59;59.59;96475.88;5048577;28;20197;-83
2024/03/23 06:10:33;;;;;;;6.13;4.93;;;;;;;4.66;59.81;96485.16;5044603;28;20257;-89
2024/03/23 06:13:03;;;;;;;4.33;3.93;;;;;;;5.12;58.59;96505.84;5036461;28;20222;-89
2024/03/23 06:16:00;;;;;;;3.10;2.80;;;;;;;5.22;57.13;96508.53;5054778;28;20212;-90
2024/03/23 06:18:31;;;;;;;3.60;3.30;;;;;;;5.36;57.43;96519.47;5048770;28;20206;-89
2024/03/23 06:21:31;;;;;;;4.00;3.30;;;;;;;5.61;55.82;96510.88;5056394;28;20197;-88
2024/03/23 06:24:09;;;;;;;5.17;2.80;;;;;;;5.77;54.89;96506.47;5050971;28;20288;-89
2024/03/23 06:26:45;;;;;;;3.73;3.40;;;;;;;5.68;54.30;96473.69;5047070;28;20225;-88
2024/03/23 06:29:20;;;;;;;3.87;3.47;;;;;;;6.00;53.97;96515.84;5054441;28;20213;-89
2024/03/23 06:31:55;;;;;;;3.90;3.27;;;;;;;5.84;53.80;96459.50;5035888;28;20221;-89
2024/03/23 06:34:22;;;;;;;3.43;2.80;;;;;;;6.28;52.57;96509.38;5050407;28;20213;-90
2024/03/23 06:37:04;;;;;;;3.20;2.90;;;;;;;6.38;52.52;96512.81;5053282;28;20194;-90
2024/03/23 06:39:39;;;;;;;2.77;2.47;;;;;;;6.31;52.12;96477.94;5053326;28;20287;-90
2024/03/23 06:42:15;;;;;;;3.10;2.70;;;;;;;6.67;51.22;96498.34;5037928;28;20213;-91
2024/03/23 06:44:43;;;;;;;6.03;3.30;;;;;;;6.73;51.05;96489.34;5048584;28;20623;-89
2024/03/23 06:47:12;;;;;;;3.00;2.70;;;;;;;6.88;49.58;96477.97;5044135;28;20202;-89
2024/03/23 06:49:38;;;;;;;3.30;2.73;;;;;;;7.38;48.82;96516.06;5035602;28;20202;-89
2024/03/23 06:52:05;;;;;;;4.47;3.07;;;;;;;7.51;48.57;96513.66;5054424;28;20217;-88
2024/03/23 06:54:31;;;;;;;3.27;2.77;;;;;;;7.70;47.86;96507.78;5054266;28;20194;-88
2024/03/23 06:56:58;;;;;;;2.70;2.30;;;;;;;7.89;47.79;96502.69;5054740;28;20216;-88
2024/03/23 06:59:23;;;;;;;2.67;2.47;;;;;;;8.05;47.94;96507.69;5053859;28;20309;-88
2024/03/23 07:01:52;;;;;;;2.50;2.30;;;;;;;8.19;46.03;96510.53;5043461;28;20642;-88
2024/03/23 07:04:20;;;;;;;2.70;2.50;;;;;;;8.42;46.43;96485.25;5054509;28;20743;-87
2024/03/23 07:06:47;;;;;;;2.67;2.47;;;;;;;8.66;46.36;96503.16;5054654;28;20252;-87
2024/03/23 07:09:12;;;;;;;2.43;2.27;;;;;;;8.45;46.03;96476.75;5054986;28;20575;-87
2024/03/23 07:11:39;;;;;;;2.50;2.30;;;;;;;9.12;45.12;96506.25;5052929;28;20221;-87
2024/03/23 07:14:05;;;;;;;3.20;2.73;;;;;;;9.15;44.46;96503.06;5054422;28;20201;-87
2024/03/23 07:16:32;;;;;;;2.33;2.13;;;;;;;9.04;44.47;96467.03;5053078;28;20204;-84
2024/03/23 07:18:58;;;;;;;2.50;2.30;;;;;;;9.38;43.72;96503.38;5053215;28;20669;-85
2024/03/23 07:21:27;;;;;;;2.63;2.30;;;;;;;9.69;42.95;96502.00;5053702;28;20683;-84
2024/03/23 07:23:53;;;;;;;2.50;2.30;;;;;;;10.00;42.68;96507.00;5054903;28;20194;-84
2024/03/23 07:26:20;;;;;;;2.57;2.10;;;;;;;10.17;40.24;96482.56;5054475;28;20553;-84
2024/03/23 07:28:46;;;;;;;9.73;5.80;;;;;;;10.60;40.05;96501.19;5052331;28;20703;-84
2024/03/23 07:31:14;;;;;;;5.37;4.43;;;;;;;10.92;39.53;96503.94;5048615;28;20202;-84
2024/03/23 07:33:43;;;;;;;3.00;2.47;;;;;;;10.88;39.93;96499.44;5052880;28;20205;-84
2024/03/23 07:36:10;;;;;;;6.07;5.03;;;;;;;11.25;42.90;96495.94;5053068;28;20210;-84
2024/03/23 07:38:37;;;;;;;23.20;16.93;;;;;;;10.91;44.96;96502.31;5053046;28;20225;-86
2024/03/23 07:41:05;;;;;;;9.93;7.90;;;;;;;11.16;44.07;96497.69;5045373;28;20203;-85
2024/03/23 07:43:31;;;;;;;6.83;6.13;;;;;;;11.32;43.98;96498.22;5053908;28;20208;-85
2024/03/23 07:45:58;;;;;;;8.03;5.30;;;;;;;11.53;43.20;96494.09;5052070;28;20297;-85
2024/03/23 07:48:24;;;;;;;5.50;4.97;;;;;;;11.06;45.15;96474.66;5052572;28;20205;-85
2024/03/23 07:51:01;;;;;;;7.63;5.50;;;;;;;11.44;45.07;96499.34;5052544;28;20202;-85
2024/03/23 07:53:27;;;;;;;5.20;4.70;;;;;;;11.58;42.73;96499.38;5052861;28;20598;-85
2024/03/23 07:55:57;;;;;;;7.60;5.30;;;;;;;11.81;42.70;96492.28;5053048;28;20202;-84
2024/03/23 07:58:23;;;;;;;7.43;5.50;;;;;;;11.78;43.52;96489.41;5053607;28;20649;-86
2024/03/23 08:00:51;;;;;;;5.43;4.90;;;;;;;12.14;41.16;96490.31;5037444;28;20193;-84
2024/03/23 08:03:16;;;;;;;7.97;5.20;;;;;;;12.17;41.97;96487.06;5032348;28;20214;-84
2024/03/23 08:05:43;;;;;;;6.90;5.40;;;;;;;12.08;41.92;96483.53;5033597;28;20200;-82
2024/03/23 08:08:09;;;;;;;6.33;5.63;;;;;;;12.33;43.01;96492.88;5036229;28;20640;-82
2024/03/23 08:10:36;;;;;;;11.10;6.17;;;;;;;13.02;41.08;96484.66;5053077;28;20680;-81
2024/03/23 08:13:05;;;;;;;8.03;6.27;;;;;;;13.05;41.37;96491.25;5051750;28;20284;-85
2024/03/23 08:15:33;;;;;;;10.37;6.73;;;;;;;12.72;42.33;96488.81;5052095;28;20198;-84
2024/03/23 08:18:00;;;;;;;12.47;5.90;;;;;;;12.59;41.33;96490.44;5053251;28;20297;-84
2024/03/23 08:20:27;;;;;;;8.23;5.97;;;;;;;12.57;40.62;96481.16;5042205;28;20198;-84
2024/03/23 08:22:52;;;;;;;8.57;6.97;;;;;;;12.38;41.52;96482.06;5032204;28;20202;-84
2024/03/23 08:25:19;;;;;;;9.63;7.33;;;;;;;12.69;40.81;96486.75;5036954;28;20575;-84
2024/03/23 08:27:45;;;;;;;10.20;6.90;;;;;;;12.66;40.08;96485.47;5052626;28;20572;-85
2024/03/23 08:30:14;;;;;;;11.00;6.47;;;;;;;12.78;40.03;96481.47;5053048;28;20197;-84
2024/03/23 08:32:39;;;;;;;6.87;6.17;;;;;;;12.78;39.74;96479.59;5053165;28;20695;-84
2024/03/23 08:35:07;;;;;;;12.00;9.67;;;;;;;12.72;39.75;96428.19;5052903;28;20198;-84
2024/03/23 08:37:33;;;;;;;12.33;10.00;;;;;;;13.43;38.58;96483.66;5047065;28;20202;-84
2024/03/23 08:40:00;;;;;;;13.80;9.17;;;;;;;13.34;38.99;96472.16;5039665;28;20252;-84
2024/03/23 08:42:26;;;;;;;10.27;7.70;;;;;;;13.31;39.71;96472.75;5051766;28;20198;-84
2024/03/23 08:44:53;;;;;;;8.20;6.40;;;;;;;13.53;40.00;96471.94;5051727;28;20646;-85
2024/03/23 08:47:20;;;;;;;11.57;6.83;;;;;;;13.04;39.86;96436.25;5051575;28;20208;-86
2024/03/23 08:49:47;;;;;;;8.93;6.80;;;;;;;14.13;39.21;96449.94;5052566;28;20228;-83
2024/03/23 08:52:12;;;;;;;8.33;7.47;;;;;;;13.75;39.90;96471.88;5052267;28;20214;-83
2024/03/23 08:54:39;;;;;;;10.93;7.17;;;;;;;14.23;39.22;96462.25;5052089;28;20212;-83
2024/03/23 08:57:05;;;;;;;12.30;6.80;;;;;;;14.56;37.08;96473.34;5052272;28;20201;-83
2024/03/23 08:59:31;;;;;;;8.47;7.03;;;;;;;14.95;37.13;96468.94;5044421;28;20273;-83
2024/03/23 09:01:57;;;;;;;9.03;6.20;;;;;;;14.60;36.71;96453.66;5032597;28;20267;-83
2024/03/23 09:04:25;;;;;;;19.63;11.63;;;;;;;14.76;35.53;96466.59;5032495;28;20672;-83
2024/03/23 09:06:51;;;;;;;7.80;5.80;;;;;;;14.36;35.16;96459.41;5032278;28;20213;-83
2024/03/23 09:09:19;;;;;;;6.57;5.43;;;;;;;14.56;35.84;96460.75;5033176;28;20198;-83
2024/03/23 09:11:45;;;;;;;9.87;5.57;;;;;;;14.95;34.95;96464.38;5046772;28;20190;-83
2024/03/23 09:14:12;;;;;;;6.87;5.93;;;;;;;15.25;35.29;96449.16;5050151;28;20201;-83
2024/03/23 09:16:37;;;;;;;12.20;6.90;;;;;;;15.43;33.66;96457.19;5036000;28;20202;-83
2024/03/23 09:19:04;;;;;;;6.50;5.23;;;;;;;15.30;33.10;96453.59;5047985;28;20259;-83
2024/03/23 09:21:31;;;;;;;10.90;7.13;;;;;;;15.74;32.74;96452.38;5051234;28;20198;-83
2024/03/23 09:23:58;;;;;;;8.03;4.83;;;;;;;14.86;33.90;96442.13;5051127;28;20300;-83
2024/03/23 09:26:24;;;;;;;8.80;5.17;;;;;;;14.85;33.39;96449.41;5052353;28;20193;-80
2024/03/23 09:28:50;;;;;;;7.53;6.33;;;;;;;15.85;32.07;96440.16;5050915;28;20613;-81
2024/03/23 09:31:17;;;;;;;6.57;5.50;;;;;;;16.42;30.00;96436.22;5051498;28;20201;-83
2024/03/23 09:33:44;;;;;;;6.77;5.07;;;;;;;16.23;29.65;96430.50;5046291;28;20252;-84
2024/03/23 09:36:10;;;;;;;8.70;6.67;;;;;;;16.10;29.71;96433.06;5046005;28;20256;-84
2024/03/23 09:38:38;;;;;;;10.07;8.10;;;;;;;15.93;29.54;96427.03;5051927;28;20194;-83
2024/03/23 09:41:08;;;;;;;6.50;5.60;;;;;;;16.06;29.38;96420.63;5051638;28;20198;-84
2024/03/23 09:43:34;;;;;;;8.27;6.13;;;;;;;16.24;27.66;96427.47;5051048;28;20248;-83
2024/03/23 09:46:02;;;;;;;9.10;7.10;;;;;;;15.88;28.77;96409.22;5051396;28;20668;-84
2024/03/23 09:48:29;;;;;;;14.93;9.77;;;;;;;16.05;29.31;96411.78;5051611;28;20202;-82
2024/03/23 09:50:54;;;;;;;8.03;4.80;;;;;;;16.68;29.82;96405.63;5051686;28;20708;-82
2024/03/23 09:53:22;;;;;;;9.77;5.97;;;;;;;16.59;26.69;96401.13;5051556;28;20222;-81
2024/03/23 09:55:49;;;;;;;9.83;7.50;;;;;;;16.55;28.54;96402.13;5050123;28;20297;-81
2024/03/23 09:58:18;;;;;;;6.70;5.57;;;;;;;16.79;27.81;96402.25;5051697;28;20214;-82
2024/03/23 10:00:44;;;;;;;12.63;9.20;;;;;;;16.42;26.93;96362.88;5051500;28;20675;-81
2024/03/23 10:03:11;;;;;;;6.47;5.23;;;;;;;16.67;28.45;96399.47;5051570;28;20605;-81
2024/03/23 10:05:37;;;;;;;6.40;5.80;;;;;;;16.38;26.28;96390.41;5052481;28;20199;-81
2024/03/23 10:08:19;;;;;;;5.07;4.00;;;;;;;16.90;24.27;96381.13;5051913;28;20205;-81
2024/03/23 10:10:46;;;;;;;4.13;3.53;;;;;;;16.66;26.74;96394.44;5050095;28;20281;-83
2024/03/23 10:13:25;;;;;;;5.90;3.63;;;;;;;17.22;26.24;96374.13;5037916;28;20235;-83
2024/03/23 10:15:56;;;;;;;3.30;3.00;;;;;;;16.33;26.46;96371.78;5042155;28;20291;-83
2024/03/23 10:18:24;;;;;;;4.53;4.07;;;;;;;16.39;27.56;96373.16;5031560;28;20252;-82
2024/03/23 10:21:07;;;;;;;6.67;5.30;;;;;;;16.99;27.60;96367.59;5032259;28;20202;-83
2024/03/23 10:23:33;;;;;;;8.73;4.03;;;;;;;17.40;27.05;96369.34;5031769;28;20572;-83
2024/03/23 10:26:12;;;;;;;4.67;4.00;;;;;;;17.53;26.93;96365.53;5041204;28;20201;-83
2024/03/23 10:28:52;;;;;;;4.20;3.40;;;;;;;16.17;26.23;96365.44;5048748;28;20207;-83
2024/03/23 10:31:19;;;;;;;4.03;3.33;;;;;;;16.12;26.57;96342.25;5039735;28;20297;-84
2024/03/23 10:33:46;;;;;;;3.50;3.20;;;;;;;16.01;27.45;96332.22;5037102;28;20223;-83
2024/03/23 10:36:12;;;;;;;3.77;3.30;;;;;;;15.89;28.51;96349.03;5046018;28;20283;-83
2024/03/23 10:38:41;;;;;;;5.67;3.23;;;;;;;15.62;27.33;96348.38;5050974;28;20190;-83
2024/03/23 10:41:08;;;;;;;5.20;4.00;;;;;;;16.17;27.33;96341.25;5048590;28;20194;-83
2024/03/23 10:43:35;;;;;;;4.90;3.80;;;;;;;16.49;27.29;96325.50;5052482;28;20202;-83
2024/03/23 10:46:03;;;;;;;3.67;3.37;;;;;;;16.71;26.47;96343.97;5053573;28;20333;-82
2024/03/23 10:48:30;;;;;;;3.37;3.07;;;;;;;15.86;26.80;96337.06;5054139;28;20190;-82
2024/03/23 10:50:56;;;;;;;4.53;3.43;;;;;;;15.79;28.84;96334.09;5053632;28;20195;-83
2024/03/23 10:53:26;;;;;;;8.43;3.80;;;;;;;16.23;26.04;96286.25;5053291;28;20231;-81
2024/03/23 10:55:53;;;;;;;2.90;2.70;;;;;;;16.64;23.61;96327.59;5054451;28;20212;-82
2024/03/23 10:58:25;;;;;;;3.37;3.07;;;;;;;16.81;25.52;96322.06;5054159;28;20595;-82
2024/03/23 11:00:51;;;;;;;2.73;2.53;;;;;;;16.45;23.49;96282.41;5053102;28;20291;-82
2024/03/23 11:03:37;;;;;;;4.17;2.93;;;;;;;15.58;26.00;96309.13;5038804;28;20632;-82
2024/03/23 11:06:04;;;;;;;3.23;2.83;;;;;;;16.48;25.88;96307.81;5053191;28;20266;-83
2024/03/23 11:08:32;;;;;;;5.50;3.40;;;;;;;16.46;23.85;96305.47;5053354;28;20200;-82
2024/03/23 11:11:31;;;;;;;2.97;2.53;;;;;;;16.47;24.17;96301.66;5043252;28;20271;-82
2024/03/23 11:13:58;;;;;;;3.33;3.03;;;;;;;16.43;22.93;96300.75;4985053;28;20226;-82
2024/03/23 11:16:27;;;;;;;2.93;2.70;;;;;;;16.46;20.81;96302.00;5039791;28;20241;-82
2024/03/23 11:19:34;;;;;;;5.20;2.57;;;;;;;16.38;22.47;96295.59;5053638;28;20599;-82
2024/03/23 11:22:01;;;;;;;3.00;2.53;;;;;;;15.91;22.71;96295.81;5052380;28;20249;-82
2024/03/23 11:24:27;;;;;;;2.93;2.20;;;;;;;16.16;23.13;96296.75;5053792;28;20203;-82
2024/03/23 11:26:53;;;;;;;3.17;2.83;;;;;;;16.00;23.28;96285.03;5053385;28;20262;-82
2024/03/23 11:29:19;;;;;;;4.07;3.77;;;;;;;15.76;22.85;96234.66;5053050;28;20202;-82
2024/03/23 11:31:48;;;;;;;4.37;3.40;;;;;;;16.26;21.49;96257.94;5053772;28;20215;-82
2024/03/23 11:34:16;;;;;;;3.03;2.67;;;;;;;15.00;24.23;96212.25;5043890;28;20268;-83
2024/03/23 11:36:43;;;;;;;3.80;3.03;;;;;;;15.67;24.06;96242.78;5050923;28;20202;-83
2024/03/23 11:39:13;;;;;;;6.07;4.63;;;;;;;15.69;23.63;96253.22;5052687;28;20207;-83
2024/03/23 11:41:49;;;;;;;35.27;15.80;;;;;;;15.67;24.94;96258.09;5053203;28;20294;-82
2024/03/23 11:44:16;;;;;;;11.23;7.73;;;;;;;16.44;26.45;96250.50;5052504;28;20665;-82
2024/03/23 11:46:43;;;;;;;8.43;5.97;;;;;;;16.15;25.91;96246.84;5053405;28;20369;-82
2024/03/23 11:49:22;;;;;;;9.37;5.70;;;;;;;16.43;25.78;96225.53;5046528;28;20260;-82
2024/03/23 11:51:48;;;;;;;9.97;7.30;;;;;;;16.31;25.70;96244.31;5052204;28;20208;-82
2024/03/23 11:54:15;;;;;;;5.80;3.10;;;;;;;16.11;24.66;96211.03;5045299;28;20216;-82
2024/03/23 11:56:42;;;;;;;8.30;6.23;;;;;;;15.58;25.12;96234.78;5049852;28;20195;-82
2024/03/23 11:59:08;;;;;;;3.00;2.70;;;;;;;15.82;25.19;96223.41;5052281;28;20218;-82
2024/03/23 12:01:35;;;;;;;10.30;7.77;;;;;;;15.85;26.07;96232.72;5052655;28;20202;-82
2024/03/23 12:04:00;;;;;;;9.93;7.40;;;;;;;16.02;26.24;96224.50;5052340;28;20208;-82
2024/03/23 12:06:29;;;;;;;13.47;6.87;;;;;;;16.37;26.10;96219.59;5052217;28;20553;-82